Weather at Tambuti Airport

Public forecast

Using degrees Celsius for public forecast. Weather courtesy of forecast.io.

Closest aviation weather report (METAR) to Tambuti Airport

Report is more than 6 hours old.

Closest report is Siteki Airport, 19.5 nm (36.1 km) NNE. Retrieved 2020/09/19 14:00 UTC (13 hours ago):

FDST 191400Z AUTO 34010KT //// // ////// 23/14 Q1017

Closest aviation forecast (TAF) to Tambuti Airport

Forecast is more than 12 hours old.

Closest forecast is Matsapha Airport, 28.0 nm (51.9 km) WNW. Retrieved 2020/03/05 06:00 UTC (7 months ago):

TAF TAF FDMS 050400Z 0506/0518 06007KT CAVOK